WJA200 CYLW-CYYC
Flight info
| Callsign | WJA200 |
|---|---|
| Flight time | 0h 47m |
| Altitude | 35000 |
| Route | WHATS DCT MENBO Q983 IGVEP IGVEP7 |
| Aircraft | B737/M-SDE2E3FGHIRWXY/LB1 |
Departure
| Time | 2026-05-09 04:45 |
|---|---|
| Airport | Kelowna International Airport (CYLW) |
Arrival
| Time | 2026-05-09 05:33 |
|---|---|
| Airport | Calgary International Airport (CYYC) |
| Time | Latitude | Longitude | Altitude | Speed | Heading |
|---|---|---|---|---|---|
| 2026-05-09 04:18 | 49.95062 | -119.38010 | 1419 ft | 0 kts | 310° |
| 2026-05-09 04:24 | 49.95062 | -119.38009 | 1391 ft | 0 kts | 310° |
| 2026-05-09 04:26 | 49.95061 | -119.38009 | 1391 ft | 0 kts | 310° |
| 2026-05-09 04:32 | 49.95060 | -119.38008 | 1391 ft | 2 kts | 310° |
| 2026-05-09 04:32 | 49.95051 | -119.37975 | 1419 ft | 4 kts | 277° |
| 2026-05-09 04:32 | 49.95045 | -119.37943 | 1419 ft | 4 kts | 294° |
| 2026-05-09 04:33 | 49.95031 | -119.37910 | 1419 ft | 4 kts | 326° |
| 2026-05-09 04:33 | 49.95014 | -119.37898 | 1419 ft | 0 kts | 355° |
| 2026-05-09 04:37 | 49.95050 | -119.37902 | 1419 ft | 7 kts | 357° |
| 2026-05-09 04:37 | 49.95099 | -119.37909 | 1419 ft | 7 kts | 353° |
| 2026-05-09 04:38 | 49.95143 | -119.37896 | 1419 ft | 7 kts | 45° |
| 2026-05-09 04:38 | 49.95179 | -119.37859 | 1420 ft | 7 kts | 5° |
| 2026-05-09 04:38 | 49.95224 | -119.37865 | 1421 ft | 6 kts | 354° |
| 2026-05-09 04:38 | 49.95268 | -119.37872 | 1418 ft | 7 kts | 355° |
| 2026-05-09 04:39 | 49.95321 | -119.37879 | 1420 ft | 9 kts | 355° |
| 2026-05-09 04:39 | 49.95390 | -119.37888 | 1418 ft | 11 kts | 354° |
| 2026-05-09 04:39 | 49.95472 | -119.37900 | 1421 ft | 13 kts | 355° |
| 2026-05-09 04:39 | 49.95569 | -119.37914 | 1420 ft | 14 kts | 355° |
| 2026-05-09 04:40 | 49.95668 | -119.37927 | 1419 ft | 14 kts | 354° |
| 2026-05-09 04:40 | 49.95761 | -119.37941 | 1419 ft | 13 kts | 355° |
| 2026-05-09 04:40 | 49.95851 | -119.37953 | 1419 ft | 13 kts | 355° |
| 2026-05-09 04:40 | 49.95939 | -119.37965 | 1419 ft | 12 kts | 355° |
| 2026-05-09 04:41 | 49.96025 | -119.37977 | 1419 ft | 12 kts | 355° |
| 2026-05-09 04:41 | 49.96108 | -119.37989 | 1419 ft | 12 kts | 355° |
| 2026-05-09 04:41 | 49.96189 | -119.38000 | 1419 ft | 12 kts | 355° |
| 2026-05-09 04:41 | 49.96269 | -119.38011 | 1419 ft | 11 kts | 354° |
| 2026-05-09 04:42 | 49.96345 | -119.38022 | 1419 ft | 11 kts | 355° |
| 2026-05-09 04:42 | 49.96420 | -119.38032 | 1420 ft | 11 kts | 355° |
| 2026-05-09 04:42 | 49.96493 | -119.38042 | 1419 ft | 10 kts | 355° |
| 2026-05-09 04:42 | 49.96563 | -119.38052 | 1421 ft | 10 kts | 355° |
| 2026-05-09 04:43 | 49.96603 | -119.38027 | 1418 ft | 6 kts | 62° |
| 2026-05-09 04:43 | 49.96612 | -119.37955 | 1417 ft | 7 kts | 95° |
| 2026-05-09 04:43 | 49.96586 | -119.37915 | 1419 ft | 4 kts | 161° |
| 2026-05-09 04:43 | 49.96557 | -119.37910 | 1418 ft | 1 kts | 176° |
| 2026-05-09 04:44 | 49.96556 | -119.37910 | 1418 ft | 1 kts | 176° |
| 2026-05-09 04:44 | 49.96331 | -119.37879 | 1418 ft | 70 kts | 175° |
| 2026-05-09 04:45 | 49.95621 | -119.37780 | 1420 ft | 132 kts | 175° |
| 2026-05-09 04:45 | 49.94578 | -119.37627 | 1699 ft | 158 kts | 175° |
| 2026-05-09 04:45 | 49.93447 | -119.37463 | 2380 ft | 172 kts | 176° |
| 2026-05-09 04:45 | 49.92197 | -119.37272 | 2936 ft | 188 kts | 176° |
| 2026-05-09 04:46 | 49.90850 | -119.37102 | 3572 ft | 203 kts | 176° |
| 2026-05-09 04:46 | 49.89334 | -119.37047 | 3848 ft | 231 kts | 188° |
| 2026-05-09 04:46 | 49.87774 | -119.37943 | 4172 ft | 256 kts | 217° |
| 2026-05-09 04:46 | 49.86709 | -119.40215 | 4836 ft | 268 kts | 250° |
| 2026-05-09 04:47 | 49.86214 | -119.42878 | 6333 ft | 250 kts | 256° |
| 2026-05-09 04:47 | 49.85680 | -119.45500 | 7224 ft | 261 kts | 253° |
| 2026-05-09 04:47 | 49.85047 | -119.48186 | 8116 ft | 269 kts | 251° |
| 2026-05-09 04:47 | 49.84356 | -119.50909 | 9149 ft | 273 kts | 250° |
| 2026-05-09 04:48 | 49.83629 | -119.53658 | 10155 ft | 279 kts | 250° |
| 2026-05-09 04:48 | 49.82853 | -119.56531 | 10710 ft | 302 kts | 249° |
| 2026-05-09 04:48 | 49.82302 | -119.58549 | 11102 ft | 312 kts | 249° |
| 2026-05-09 04:48 | 49.81585 | -119.61758 | 11971 ft | 317 kts | 263° |
| 2026-05-09 04:49 | 49.81905 | -119.66202 | 13293 ft | 319 kts | 293° |
| 2026-05-09 04:49 | 49.83141 | -119.69058 | 14287 ft | 324 kts | 315° |
| 2026-05-09 04:49 | 49.84646 | -119.71661 | 15201 ft | 328 kts | 298° |
| 2026-05-09 04:49 | 49.85241 | -119.75060 | 16118 ft | 334 kts | 274° |
| 2026-05-09 04:50 | 49.85605 | -119.78619 | 17004 ft | 338 kts | 294° |
| 2026-05-09 04:50 | 49.86430 | -119.80720 | 17625 ft | 341 kts | 312° |
| 2026-05-09 04:50 | 49.89105 | -119.83215 | 18782 ft | 349 kts | 347° |
| 2026-05-09 04:50 | 49.90750 | -119.83421 | 19338 ft | 354 kts | 2° |
| 2026-05-09 04:51 | 49.93203 | -119.82762 | 20124 ft | 362 kts | 15° |
| 2026-05-09 04:51 | 49.95500 | -119.81191 | 20895 ft | 371 kts | 30° |
| 2026-05-09 04:51 | 49.97522 | -119.78651 | 21686 ft | 379 kts | 46° |
| 2026-05-09 04:51 | 49.98963 | -119.75175 | 22489 ft | 387 kts | 66° |
| 2026-05-09 04:52 | 49.99642 | -119.71105 | 23290 ft | 394 kts | 82° |
| 2026-05-09 04:52 | 49.99766 | -119.66824 | 24002 ft | 399 kts | 89° |
| 2026-05-09 04:52 | 49.99666 | -119.62481 | 24632 ft | 404 kts | 92° |
| 2026-05-09 04:52 | 49.99500 | -119.58107 | 25276 ft | 408 kts | 93° |
| 2026-05-09 04:53 | 49.99335 | -119.53695 | 25966 ft | 410 kts | 93° |
| 2026-05-09 04:53 | 49.99196 | -119.49252 | 26603 ft | 413 kts | 94° |
| 2026-05-09 04:53 | 49.99083 | -119.44780 | 27301 ft | 414 kts | 93° |
| 2026-05-09 04:53 | 49.98988 | -119.40296 | 27967 ft | 416 kts | 93° |
| 2026-05-09 04:54 | 49.98904 | -119.35776 | 28559 ft | 420 kts | 93° |
| 2026-05-09 04:54 | 49.98824 | -119.31222 | 29155 ft | 423 kts | 93° |
| 2026-05-09 04:54 | 49.98746 | -119.26646 | 29931 ft | 421 kts | 94° |
| 2026-05-09 04:54 | 49.98670 | -119.22188 | 30701 ft | 416 kts | 94° |
| 2026-05-09 04:55 | 49.98592 | -119.17701 | 31347 ft | 415 kts | 94° |
| 2026-05-09 04:55 | 49.98510 | -119.13213 | 31860 ft | 416 kts | 94° |
| 2026-05-09 04:55 | 49.98426 | -119.08716 | 32406 ft | 417 kts | 94° |
| 2026-05-09 04:55 | 49.98340 | -119.04234 | 33057 ft | 414 kts | 94° |
| 2026-05-09 04:56 | 49.98254 | -118.99767 | 33633 ft | 413 kts | 94° |
| 2026-05-09 04:56 | 49.98165 | -118.95299 | 34087 ft | 414 kts | 95° |
| 2026-05-09 04:56 | 49.98074 | -118.90832 | 34537 ft | 413 kts | 94° |
| 2026-05-09 04:56 | 49.97981 | -118.86344 | 34866 ft | 416 kts | 94° |
| 2026-05-09 04:57 | 49.97885 | -118.81830 | 35056 ft | 422 kts | 94° |
| 2026-05-09 04:57 | 49.97685 | -118.72624 | 35036 ft | 424 kts | 94° |
| 2026-05-09 04:58 | 49.97484 | -118.63580 | 35036 ft | 417 kts | 94° |
| 2026-05-09 04:58 | 49.97274 | -118.54542 | 35045 ft | 420 kts | 94° |
| 2026-05-09 04:59 | 49.97055 | -118.45437 | 35044 ft | 422 kts | 94° |
| 2026-05-09 04:59 | 49.96832 | -118.36335 | 35020 ft | 422 kts | 94° |
| 2026-05-09 05:00 | 49.96829 | -118.27237 | 35020 ft | 423 kts | 84° |
| 2026-05-09 05:00 | 49.98289 | -118.18442 | 35036 ft | 424 kts | 73° |
| 2026-05-09 05:01 | 50.00156 | -118.09749 | 35025 ft | 424 kts | 73° |
| 2026-05-09 05:01 | 50.02008 | -118.01062 | 35022 ft | 423 kts | 73° |
| 2026-05-09 05:02 | 50.03822 | -117.92355 | 35013 ft | 423 kts | 74° |
| 2026-05-09 05:02 | 50.05612 | -117.83650 | 35021 ft | 422 kts | 74° |
| 2026-05-09 05:03 | 50.07394 | -117.74927 | 35019 ft | 423 kts | 74° |
| 2026-05-09 05:03 | 50.09170 | -117.66199 | 35009 ft | 423 kts | 74° |
| 2026-05-09 05:04 | 50.10940 | -117.57464 | 35026 ft | 422 kts | 74° |
| 2026-05-09 05:04 | 50.12701 | -117.48729 | 35024 ft | 423 kts | 74° |
| 2026-05-09 05:05 | 50.14461 | -117.39968 | 35029 ft | 424 kts | 74° |
| 2026-05-09 05:05 | 50.16207 | -117.31233 | 35031 ft | 425 kts | 74° |
| 2026-05-09 05:06 | 50.17958 | -117.22439 | 35036 ft | 424 kts | 74° |
| 2026-05-09 05:06 | 50.19702 | -117.13638 | 35039 ft | 424 kts | 74° |
| 2026-05-09 05:07 | 50.21435 | -117.04847 | 35045 ft | 424 kts | 74° |
| 2026-05-09 05:07 | 50.23166 | -116.96035 | 35042 ft | 424 kts | 74° |
| 2026-05-09 05:08 | 50.24889 | -116.87216 | 35050 ft | 425 kts | 74° |
| 2026-05-09 05:08 | 50.26610 | -116.78371 | 35043 ft | 426 kts | 75° |
| 2026-05-09 05:09 | 50.28328 | -116.69499 | 35041 ft | 426 kts | 74° |
| 2026-05-09 05:09 | 50.30037 | -116.60633 | 35047 ft | 426 kts | 74° |
| 2026-05-09 05:10 | 50.31733 | -116.51795 | 34771 ft | 429 kts | 75° |
| 2026-05-09 05:10 | 50.32588 | -116.47320 | 34294 ft | 429 kts | 75° |
| 2026-05-09 05:10 | 50.33443 | -116.42842 | 33672 ft | 430 kts | 75° |
| 2026-05-09 05:10 | 50.34296 | -116.38359 | 33034 ft | 429 kts | 75° |
| 2026-05-09 05:11 | 50.35141 | -116.33906 | 32590 ft | 423 kts | 75° |
| 2026-05-09 05:11 | 50.35973 | -116.29516 | 32111 ft | 420 kts | 75° |
| 2026-05-09 05:11 | 50.36798 | -116.25153 | 31654 ft | 416 kts | 74° |
| 2026-05-09 05:11 | 50.37617 | -116.20819 | 31203 ft | 412 kts | 74° |
| 2026-05-09 05:12 | 50.38424 | -116.16528 | 30763 ft | 409 kts | 74° |
| 2026-05-09 05:12 | 50.39233 | -116.12276 | 30338 ft | 405 kts | 72° |
| 2026-05-09 05:12 | 50.40123 | -116.08100 | 29887 ft | 402 kts | 71° |
| 2026-05-09 05:12 | 50.41041 | -116.04030 | 29407 ft | 398 kts | 70° |
| 2026-05-09 05:13 | 50.41981 | -115.99920 | 28933 ft | 393 kts | 70° |
| 2026-05-09 05:13 | 50.42882 | -115.95954 | 28470 ft | 389 kts | 70° |
| 2026-05-09 05:13 | 50.43780 | -115.91962 | 28024 ft | 385 kts | 70° |
| 2026-05-09 05:13 | 50.44660 | -115.88011 | 27547 ft | 382 kts | 70° |
| 2026-05-09 05:14 | 50.45528 | -115.84094 | 27102 ft | 379 kts | 70° |
| 2026-05-09 05:14 | 50.46386 | -115.80199 | 26648 ft | 376 kts | 70° |
| 2026-05-09 05:14 | 50.47238 | -115.76323 | 26207 ft | 373 kts | 70° |
| 2026-05-09 05:14 | 50.48080 | -115.72481 | 25763 ft | 371 kts | 70° |
| 2026-05-09 05:15 | 50.48915 | -115.68668 | 25323 ft | 368 kts | 70° |
| 2026-05-09 05:15 | 50.49744 | -115.64872 | 24898 ft | 366 kts | 70° |
| 2026-05-09 05:15 | 50.50567 | -115.61097 | 24461 ft | 364 kts | 70° |
| 2026-05-09 05:15 | 50.51388 | -115.57329 | 24023 ft | 363 kts | 70° |
| 2026-05-09 05:16 | 50.52203 | -115.53588 | 23558 ft | 362 kts | 70° |
| 2026-05-09 05:16 | 50.53013 | -115.49852 | 23035 ft | 360 kts | 70° |
| 2026-05-09 05:16 | 50.53817 | -115.46138 | 22557 ft | 357 kts | 71° |
| 2026-05-09 05:16 | 50.54609 | -115.42456 | 22145 ft | 353 kts | 71° |
| 2026-05-09 05:17 | 50.55377 | -115.38854 | 21699 ft | 351 kts | 71° |
| 2026-05-09 05:17 | 50.56151 | -115.35229 | 21242 ft | 349 kts | 71° |
| 2026-05-09 05:17 | 50.56919 | -115.31623 | 20763 ft | 347 kts | 71° |
| 2026-05-09 05:17 | 50.57677 | -115.28053 | 20377 ft | 343 kts | 71° |
| 2026-05-09 05:18 | 50.58431 | -115.24499 | 19933 ft | 342 kts | 71° |
| 2026-05-09 05:18 | 50.59178 | -115.20951 | 19498 ft | 340 kts | 72° |
| 2026-05-09 05:18 | 50.59920 | -115.17425 | 19067 ft | 339 kts | 72° |
| 2026-05-09 05:18 | 50.60658 | -115.13910 | 18635 ft | 338 kts | 72° |
| 2026-05-09 05:19 | 50.61394 | -115.10402 | 18169 ft | 337 kts | 72° |
| 2026-05-09 05:19 | 50.62128 | -115.06888 | 17647 ft | 337 kts | 72° |
| 2026-05-09 05:19 | 50.62864 | -115.03404 | 17184 ft | 335 kts | 71° |
| 2026-05-09 05:19 | 50.63611 | -114.99936 | 16734 ft | 332 kts | 71° |
| 2026-05-09 05:20 | 50.64353 | -114.96508 | 16286 ft | 330 kts | 71° |
| 2026-05-09 05:20 | 50.65091 | -114.93091 | 15860 ft | 327 kts | 71° |
| 2026-05-09 05:20 | 50.65817 | -114.89715 | 15444 ft | 325 kts | 71° |
| 2026-05-09 05:20 | 50.66529 | -114.86387 | 15007 ft | 323 kts | 71° |
| 2026-05-09 05:21 | 50.67245 | -114.82998 | 14582 ft | 321 kts | 71° |
| 2026-05-09 05:21 | 50.67935 | -114.79664 | 14163 ft | 319 kts | 72° |
| 2026-05-09 05:21 | 50.68612 | -114.76391 | 13739 ft | 317 kts | 71° |
| 2026-05-09 05:21 | 50.69294 | -114.73086 | 13265 ft | 315 kts | 72° |
| 2026-05-09 05:22 | 50.69958 | -114.69872 | 13133 ft | 302 kts | 72° |
| 2026-05-09 05:22 | 50.70613 | -114.66784 | 12977 ft | 290 kts | 67° |
| 2026-05-09 05:22 | 50.71714 | -114.64200 | 12755 ft | 281 kts | 46° |
| 2026-05-09 05:22 | 50.73068 | -114.62010 | 12501 ft | 278 kts | 45° |
| 2026-05-09 05:23 | 50.74419 | -114.59836 | 12268 ft | 278 kts | 45° |
| 2026-05-09 05:23 | 50.75773 | -114.57640 | 12015 ft | 280 kts | 45° |
| 2026-05-09 05:23 | 50.77139 | -114.55421 | 11749 ft | 281 kts | 45° |
| 2026-05-09 05:23 | 50.78502 | -114.53198 | 11483 ft | 282 kts | 45° |
| 2026-05-09 05:24 | 50.79861 | -114.50975 | 11209 ft | 281 kts | 46° |
| 2026-05-09 05:24 | 50.81213 | -114.48782 | 10939 ft | 276 kts | 44° |
| 2026-05-09 05:24 | 50.82580 | -114.46690 | 10677 ft | 271 kts | 44° |
| 2026-05-09 05:24 | 50.83938 | -114.44646 | 10424 ft | 269 kts | 44° |
| 2026-05-09 05:25 | 50.85286 | -114.42615 | 10195 ft | 267 kts | 44° |
| 2026-05-09 05:25 | 50.86621 | -114.40595 | 9956 ft | 264 kts | 44° |
| 2026-05-09 05:25 | 50.89224 | -114.36636 | 9433 ft | 254 kts | 44° |
| 2026-05-09 05:26 | 50.90469 | -114.34736 | 9194 ft | 249 kts | 45° |
| 2026-05-09 05:26 | 50.91665 | -114.32782 | 8934 ft | 247 kts | 56° |
| 2026-05-09 05:26 | 50.92388 | -114.30349 | 8687 ft | 242 kts | 70° |
| 2026-05-09 05:26 | 50.92981 | -114.27858 | 8391 ft | 241 kts | 70° |
| 2026-05-09 05:27 | 50.93570 | -114.25384 | 8102 ft | 239 kts | 70° |
| 2026-05-09 05:27 | 50.94160 | -114.22924 | 7824 ft | 237 kts | 70° |
| 2026-05-09 05:27 | 50.94747 | -114.20489 | 7542 ft | 235 kts | 70° |
| 2026-05-09 05:27 | 50.95329 | -114.18091 | 7267 ft | 230 kts | 70° |
| 2026-05-09 05:28 | 50.95898 | -114.15752 | 7011 ft | 224 kts | 70° |
| 2026-05-09 05:28 | 50.96445 | -114.13503 | 6757 ft | 213 kts | 70° |
| 2026-05-09 05:28 | 50.96965 | -114.11365 | 6508 ft | 202 kts | 70° |
| 2026-05-09 05:28 | 50.97460 | -114.09330 | 6268 ft | 194 kts | 71° |
| 2026-05-09 05:29 | 50.97935 | -114.07375 | 6017 ft | 186 kts | 71° |
| 2026-05-09 05:29 | 50.98464 | -114.05546 | 5766 ft | 179 kts | 60° |
| 2026-05-09 05:29 | 50.99235 | -114.04038 | 5598 ft | 172 kts | 46° |
| 2026-05-09 05:29 | 51.00197 | -114.02967 | 5422 ft | 168 kts | 31° |
| 2026-05-09 05:30 | 51.01295 | -114.02356 | 5218 ft | 168 kts | 13° |
| 2026-05-09 05:30 | 51.02417 | -114.02198 | 5040 ft | 157 kts | 9° |
| 2026-05-09 05:30 | 51.03470 | -114.02149 | 4808 ft | 145 kts | 7° |
| 2026-05-09 05:30 | 51.04445 | -114.02143 | 4615 ft | 137 kts | 7° |
| 2026-05-09 05:31 | 51.05401 | -114.02141 | 4424 ft | 138 kts | 6° |
| 2026-05-09 05:31 | 51.06362 | -114.02141 | 4228 ft | 139 kts | 5° |
| 2026-05-09 05:31 | 51.07331 | -114.02143 | 3994 ft | 139 kts | 4° |
| 2026-05-09 05:31 | 51.08302 | -114.02142 | 3845 ft | 140 kts | 5° |
| 2026-05-09 05:32 | 51.09289 | -114.02143 | 3674 ft | 143 kts | 4° |
| 2026-05-09 05:32 | 51.10260 | -114.02141 | 3564 ft | 135 kts | 5° |
| 2026-05-09 05:32 | 51.11095 | -114.02134 | 3558 ft | 103 kts | 0° |
| 2026-05-09 05:32 | 51.11690 | -114.02137 | 3552 ft | 68 kts | 0° |
| 2026-05-09 05:33 | 51.12073 | -114.02136 | 3561 ft | 43 kts | 360° |
| 2026-05-09 05:33 | 51.12277 | -114.02092 | 3559 ft | 27 kts | 25° |
| 2026-05-09 05:33 | 51.12381 | -114.01999 | 3558 ft | 13 kts | 29° |
| 2026-05-09 05:33 | 51.12458 | -114.01929 | 3556 ft | 13 kts | 30° |
| 2026-05-09 05:34 | 51.12532 | -114.01859 | 3557 ft | 12 kts | 31° |
| 2026-05-09 05:34 | 51.12608 | -114.01800 | 3558 ft | 12 kts | 14° |
| 2026-05-09 05:34 | 51.12690 | -114.01795 | 3558 ft | 12 kts | 360° |
| 2026-05-09 05:34 | 51.12770 | -114.01795 | 3558 ft | 11 kts | 360° |
| 2026-05-09 05:35 | 51.12848 | -114.01795 | 3558 ft | 11 kts | 0° |
| 2026-05-09 05:35 | 51.12924 | -114.01795 | 3557 ft | 11 kts | 0° |
| 2026-05-09 05:35 | 51.12998 | -114.01795 | 3557 ft | 10 kts | 360° |
| 2026-05-09 05:35 | 51.13045 | -114.01795 | 3558 ft | 10 kts | 0° |
| 2026-05-09 05:36 | 51.13105 | -114.01747 | 3555 ft | 10 kts | 51° |
| 2026-05-09 05:36 | 51.13145 | -114.01659 | 3555 ft | 10 kts | 60° |
| 2026-05-09 05:36 | 51.13155 | -114.01556 | 3558 ft | 9 kts | 90° |
| 2026-05-09 05:36 | 51.13151 | -114.01472 | 3558 ft | 6 kts | 104° |
| 2026-05-09 05:37 | 51.13146 | -114.01414 | 3558 ft | 5 kts | 71° |
| 2026-05-09 05:37 | 51.13165 | -114.01366 | 3558 ft | 5 kts | 63° |
| 2026-05-09 05:37 | 51.13174 | -114.01321 | 3555 ft | 3 kts | 73° |
| 2026-05-09 05:37 | 51.13178 | -114.01302 | 3558 ft | 1 kts | 73° |
| 2026-05-09 05:38 | 51.13180 | -114.01292 | 3558 ft | 0 kts | 73° |